Wetterdaten: Woche 12.09.16 - 18.09.16 (KW37)
Datum Zeit Temp. A. Feuchte A. Luftdruck Regen Wind Richtung Sonnenschein ET UV Solar Taupunkt Windchill Windben Empfang
12.09.2016 00:00 17,7 C 94 % 1017,2 hPa 0,0 l/m 0,8 km/h (0 Bft) O-SO 0,00 h 0,000 mm 0,0 UV-I 0 W/m 16,7 C 17,7 C 1,4 km/h (1 Bft) 98,36 %
12.09.2016 01:00 17,2 C 95 % 1017,3 hPa 0,0 l/m 0,5 km/h (0 Bft) S 0,00 h 0,000 mm 0,0 UV-I 0 W/m 16,4 C 17,2 C 1,1 km/h (0 Bft) 99,18 %
12.09.2016 02:00 16,9 C 95 % 1017,2 hPa 0,0 l/m 0,1 km/h (0 Bft) N 0,00 h 0,000 mm 0,0 UV-I 0 W/m 16,1 C 16,9 C 0,4 km/h (0 Bft) 98,10 %
12.09.2016 03:00 16,2 C 96 % 1017,0 hPa 0,0 l/m 0,0 km/h (0 Bft) N 0,00 h 0,000 mm 0,0 UV-I 0 W/m 15,5 C 16,2 C 0,2 km/h (0 Bft) 99,04 %
12.09.2016 04:00 15,6 C 96 % 1016,9 hPa 0,0 l/m 0,1 km/h (0 Bft) N 0,00 h 0,000 mm 0,0 UV-I 0 W/m 14,9 C 15,6 C 0,2 km/h (0 Bft) 98,44 %
12.09.2016 05:00 15,0 C 97 % 1016,9 hPa 0,0 l/m 0,4 km/h (0 Bft) S 0,00 h 0,000 mm 0,0 UV-I 0 W/m 14,5 C 15,0 C 0,7 km/h (0 Bft) 99,22 %
12.09.2016 06:00 14,5 C 97 % 1017,0 hPa 0,0 l/m 0,7 km/h (0 Bft) S 0,03 h 0,000 mm 0,0 UV-I 9 W/m 14,1 C 14,5 C 1,2 km/h (1 Bft) 98,42 %
12.09.2016 07:00 14,8 C 98 % 1017,1 hPa 0,0 l/m 0,2 km/h (0 Bft) S 0,00 h 0,000 mm 0,0 UV-I 51 W/m 14,5 C 14,8 C 0,6 km/h (0 Bft) 99,14 %
12.09.2016 08:00 16,1 C 98 % 1017,3 hPa 0,0 l/m 0,5 km/h (0 Bft) S 0,03 h 0,025 mm 0,4 UV-I 127 W/m 15,7 C 16,1 C 1,9 km/h (1 Bft) 98,37 %
12.09.2016 09:00 17,7 C 96 % 1017,4 hPa 0,0 l/m 4,1 km/h (1 Bft) NO 0,73 h 0,077 mm 1,2 UV-I 315 W/m 17,1 C 17,7 C 6,6 km/h (2 Bft) 99,52 %
12.09.2016 10:00 20,2 C 87 % 1017,4 hPa 0,0 l/m 4,4 km/h (1 Bft) O-NO 1,00 h 0,177 mm 2,3 UV-I 503 W/m 17,9 C 20,1 C 7,5 km/h (2 Bft) 98,44 %
12.09.2016 11:00 22,4 C 75 % 1017,2 hPa 0,0 l/m 4,8 km/h (1 Bft) NO 1,00 h 0,305 mm 3,3 UV-I 607 W/m 17,7 C 22,4 C 8,5 km/h (2 Bft) 99,23 %
12.09.2016 12:00 24,2 C 66 % 1017,0 hPa 0,0 l/m 5,5 km/h (1 Bft) NO 1,00 h 0,381 mm 3,9 UV-I 662 W/m 17,5 C 24,1 C 10,4 km/h (2 Bft) 98,30 %
12.09.2016 13:00 25,8 C 63 % 1016,7 hPa 0,0 l/m 5,5 km/h (1 Bft) N-NO 1,00 h 0,432 mm 3,9 UV-I 664 W/m 18,2 C 25,8 C 10,7 km/h (2 Bft) 99,43 %
12.09.2016 14:00 27,3 C 56 % 1016,2 hPa 0,0 l/m 6,3 km/h (2 Bft) O-NO 1,00 h 0,457 mm 3,3 UV-I 620 W/m 17,6 C 27,1 C 10,9 km/h (2 Bft) 98,40 %
12.09.2016 15:00 28,2 C 50 % 1015,7 hPa 0,0 l/m 7,1 km/h (2 Bft) NO 1,00 h 0,457 mm 2,4 UV-I 527 W/m 16,8 C 28,0 C 12,1 km/h (2 Bft) 99,38 %
12.09.2016 16:00 28,4 C 50 % 1015,4 hPa 0,0 l/m 6,6 km/h (2 Bft) NO 1,00 h 0,407 mm 1,3 UV-I 389 W/m 16,9 C 28,3 C 11,6 km/h (2 Bft) 98,25 %
12.09.2016 17:00 28,0 C 54 % 1015,2 hPa 0,0 l/m 6,8 km/h (2 Bft) O-NO 1,00 h 0,305 mm 0,6 UV-I 228 W/m 17,8 C 27,9 C 10,9 km/h (2 Bft) 99,60 %
12.09.2016 18:00 26,5 C 61 % 1015,1 hPa 0,0 l/m 4,8 km/h (1 Bft) O 0,30 h 0,203 mm 0,0 UV-I 69 W/m 18,4 C 26,5 C 7,5 km/h (2 Bft) 97,83 %
12.09.2016 19:00 24,3 C 70 % 1015,1 hPa 0,0 l/m 2,7 km/h (1 Bft) O-NO 0,07 h 0,076 mm 0,0 UV-I 11 W/m 18,4 C 24,3 C 4,4 km/h (1 Bft) 98,91 %
12.09.2016 20:00 23,3 C 73 % 1015,4 hPa 0,0 l/m 5,5 km/h (1 Bft) O-NO 0,00 h 0,025 mm 0,0 UV-I 0 W/m 18,2 C 23,3 C 8,5 km/h (2 Bft) 97,47 %
12.09.2016 21:00 22,3 C 76 % 1015,6 hPa 0,0 l/m 4,5 km/h (1 Bft) O-NO 0,00 h 0,026 mm 0,0 UV-I 0 W/m 17,8 C 22,3 C 7,1 km/h (2 Bft) 99,25 %
12.09.2016 22:00 20,7 C 81 % 1015,7 hPa 0,0 l/m 0,9 km/h (0 Bft) NO 0,00 h 0,025 mm 0,0 UV-I 0 W/m 17,4 C 20,7 C 1,8 km/h (1 Bft) 98,35 %
12.09.2016 23:00 18,8 C 88 % 1015,8 hPa 0,0 l/m 1,2 km/h (1 Bft) O-SO 0,00 h 0,000 mm 0,0 UV-I 0 W/m 16,8 C 18,8 C 2,1 km/h (1 Bft) 99,60 %
13.09.2016 00:00 18,0 C 91 % 1015,8 hPa 0,0 l/m 0,8 km/h (0 Bft) O-SO 0,00 h 0,000 mm 0,0 UV-I 0 W/m 16,5 C 18,0 C 1,7 km/h (1 Bft) 97,96 %
13.09.2016 01:00 17,4 C 94 % 1015,8 hPa 0,0 l/m 1,0 km/h (0 Bft) O-SO 0,00 h 0,000 mm 0,0 UV-I 0 W/m 16,4 C 17,4 C 1,9 km/h (1 Bft) 99,07 %
13.09.2016 02:00 16,9 C 94 % 1015,6 hPa 0,0 l/m 1,3 km/h (1 Bft) O-SO 0,00 h 0,000 mm 0,0 UV-I 0 W/m 16,0 C 16,9 C 2,7 km/h (1 Bft) 98,16 %
13.09.2016 03:00 16,6 C 95 % 1015,6 hPa 0,0 l/m 0,5 km/h (0 Bft) O-SO 0,00 h 0,000 mm 0,0 UV-I 0 W/m 15,8 C 16,6 C 1,5 km/h (1 Bft) 99,17 %
13.09.2016 04:00 15,9 C 95 % 1015,5 hPa 0,0 l/m 0,6 km/h (0 Bft) O-SO 0,00 h 0,000 mm 0,0 UV-I 0 W/m 15,1 C 15,9 C 1,4 km/h (1 Bft) 98,07 %
13.09.2016 05:00 15,4 C 96 % 1015,5 hPa 0,0 l/m 1,2 km/h (1 Bft) SO 0,00 h 0,000 mm 0,0 UV-I 0 W/m 14,8 C 15,4 C 2,2 km/h (1 Bft) 99,42 %
13.09.2016 06:00 15,1 C 96 % 1015,6 hPa 0,0 l/m 0,7 km/h (0 Bft) SO 0,00 h 0,000 mm 0,0 UV-I 8 W/m 14,5 C 15,1 C 1,7 km/h (1 Bft) 98,20 %
13.09.2016 07:00 16,0 C 97 % 1015,8 hPa 0,0 l/m 0,5 km/h (0 Bft) SO 0,00 h 0,000 mm 0,0 UV-I 42 W/m 15,5 C 16,0 C 1,7 km/h (1 Bft) 99,59 %
13.09.2016 08:00 16,3 C 97 % 1016,0 hPa 0,0 l/m 0,1 km/h (0 Bft) SO 0,00 h 0,025 mm 0,5 UV-I 116 W/m 15,9 C 16,3 C 0,7 km/h (0 Bft) 98,13 %
13.09.2016 09:00 18,0 C 96 % 1015,9 hPa 0,0 l/m 1,1 km/h (0 Bft) N-NO 0,83 h 0,077 mm 1,2 UV-I 329 W/m 17,3 C 18,0 C 3,0 km/h (1 Bft) 99,35 %
13.09.2016 10:00 21,2 C 82 % 1015,8 hPa 0,0 l/m 7,0 km/h (2 Bft) O-NO 1,00 h 0,177 mm 2,3 UV-I 504 W/m 18,1 C 20,8 C 11,7 km/h (2 Bft) 97,91 %
13.09.2016 11:00 23,1 C 73 % 1015,4 hPa 0,0 l/m 8,1 km/h (2 Bft) NO 1,00 h 0,305 mm 3,3 UV-I 608 W/m 17,9 C 22,5 C 13,3 km/h (3 Bft) 99,63 %
13.09.2016 12:00 24,8 C 66 % 1015,0 hPa 0,0 l/m 7,7 km/h (2 Bft) NO 1,00 h 0,407 mm 3,9 UV-I 663 W/m 18,0 C 24,4 C 13,1 km/h (3 Bft) 98,03 %
13.09.2016 13:00 26,2 C 60 % 1014,4 hPa 0,0 l/m 11,2 km/h (2 Bft) NO 1,00 h 0,457 mm 3,9 UV-I 673 W/m 17,7 C 25,3 C 17,3 km/h (3 Bft) 99,37 %
13.09.2016 14:00 27,4 C 53 % 1013,9 hPa 0,0 l/m 14,1 km/h (3 Bft) NO 1,00 h 0,508 mm 3,3 UV-I 628 W/m 17,0 C 26,3 C 21,2 km/h (4 Bft) 97,75 %
13.09.2016 15:00 27,9 C 50 % 1013,4 hPa 0,0 l/m 15,0 km/h (3 Bft) O-NO 1,00 h 0,508 mm 2,4 UV-I 534 W/m 16,6 C 26,8 C 22,2 km/h (4 Bft) 98,94 %
13.09.2016 16:00 27,9 C 50 % 1013,1 hPa 0,0 l/m 14,8 km/h (3 Bft) NO 1,00 h 0,457 mm 1,3 UV-I 398 W/m 16,4 C 26,9 C 21,9 km/h (4 Bft) 97,66 %
13.09.2016 17:00 27,3 C 50 % 1012,7 hPa 0,0 l/m 13,7 km/h (3 Bft) O-NO 1,00 h 0,381 mm 0,6 UV-I 236 W/m 15,9 C 26,2 C 20,3 km/h (4 Bft) 99,24 %
13.09.2016 18:00 25,6 C 57 % 1012,6 hPa 0,0 l/m 10,4 km/h (2 Bft) O-NO 0,40 h 0,254 mm 0,0 UV-I 68 W/m 16,4 C 24,9 C 16,2 km/h (3 Bft) 97,68 %
13.09.2016 19:00 23,3 C 65 % 1012,5 hPa 0,0 l/m 4,5 km/h (1 Bft) O-NO 0,07 h 0,127 mm 0,0 UV-I 10 W/m 16,3 C 23,3 C 6,9 km/h (2 Bft) 99,14 %
13.09.2016 20:00 21,6 C 71 % 1012,7 hPa 0,0 l/m 4,6 km/h (1 Bft) O-NO 0,00 h 0,025 mm 0,0 UV-I 0 W/m 16,0 C 21,6 C 7,3 km/h (2 Bft) 98,16 %
13.09.2016 21:00 20,8 C 72 % 1012,7 hPa 0,0 l/m 4,8 km/h (1 Bft) O-NO 0,00 h 0,026 mm 0,0 UV-I 0 W/m 15,5 C 20,8 C 7,6 km/h (2 Bft) 98,90 %
13.09.2016 22:00 19,3 C 77 % 1012,6 hPa 0,0 l/m 2,3 km/h (1 Bft) O-NO 0,00 h 0,025 mm 0,0 UV-I 0 W/m 15,1 C 19,3 C 4,2 km/h (1 Bft) 98,08 %
13.09.2016 23:00 18,3 C 79 % 1012,4 hPa 0,0 l/m 2,0 km/h (1 Bft) N-NO 0,00 h 0,026 mm 0,0 UV-I 0 W/m 14,6 C 18,3 C 3,7 km/h (1 Bft) 98,94 %
14.09.2016 00:00 18,1 C 80 % 1012,1 hPa 0,0 l/m 3,6 km/h (1 Bft) O-NO 0,00 h 0,000 mm 0,0 UV-I 0 W/m 14,5 C 18,1 C 6,0 km/h (2 Bft) 97,57 %
14.09.2016 01:00 16,5 C 87 % 1012,0 hPa 0,0 l/m 0,3 km/h (0 Bft) O 0,00 h 0,025 mm 0,0 UV-I 0 W/m 14,3 C 16,5 C 0,8 km/h (0 Bft) 99,36 %
14.09.2016 02:00 16,1 C 88 % 1011,8 hPa 0,0 l/m 1,3 km/h (1 Bft) O 0,00 h 0,000 mm 0,0 UV-I 0 W/m 14,2 C 16,1 C 2,5 km/h (1 Bft) 97,15 %
14.09.2016 03:00 15,6 C 90 % 1011,6 hPa 0,0 l/m 1,1 km/h (1 Bft) O 0,00 h 0,000 mm 0,0 UV-I 0 W/m 13,9 C 15,6 C 1,9 km/h (1 Bft) 98,71 %
14.09.2016 04:00 14,9 C 92 % 1011,5 hPa 0,0 l/m 1,3 km/h (1 Bft) O 0,00 h 0,000 mm 0,0 UV-I 0 W/m 13,6 C 14,9 C 2,6 km/h (1 Bft) 97,65 %
14.09.2016 05:00 13,9 C 94 % 1011,8 hPa 0,0 l/m 1,2 km/h (1 Bft) S 0,00 h 0,000 mm 0,0 UV-I 0 W/m 13,0 C 13,9 C 2,1 km/h (1 Bft) 99,20 %
14.09.2016 06:00 13,7 C 95 % 1011,9 hPa 0,0 l/m 0,8 km/h (0 Bft) S 0,03 h 0,000 mm 0,0 UV-I 9 W/m 12,9 C 13,7 C 1,4 km/h (1 Bft) 97,90 %
14.09.2016 07:00 14,0 C 95 % 1012,1 hPa 0,0 l/m 1,4 km/h (1 Bft) S-SO 0,00 h 0,000 mm 0,0 UV-I 50 W/m 13,2 C 14,0 C 2,7 km/h (1 Bft) 98,85 %
14.09.2016 08:00 16,8 C 89 % 1012,1 hPa 0,0 l/m 6,0 km/h (2 Bft) O-NO 0,73 h 0,026 mm 0,6 UV-I 190 W/m 14,9 C 16,2 C 10,1 km/h (2 Bft) 97,80 %
14.09.2016 09:00 18,8 C 81 % 1012,3 hPa 0,0 l/m 12,5 km/h (3 Bft) O-NO 1,00 h 0,127 mm 1,2 UV-I 367 W/m 15,5 C 16,6 C 18,4 km/h (3 Bft) 99,37 %
14.09.2016 10:00 21,0 C 74 % 1012,3 hPa 0,0 l/m 11,5 km/h (2 Bft) O-NO 1,00 h 0,228 mm 2,2 UV-I 506 W/m 16,2 C 19,4 C 16,6 km/h (3 Bft) 98,01 %
14.09.2016 11:00 23,3 C 67 % 1012,3 hPa 0,0 l/m 9,5 km/h (2 Bft) NO 1,00 h 0,331 mm 3,2 UV-I 605 W/m 16,9 C 22,5 C 15,3 km/h (3 Bft) 99,36 %
14.09.2016 12:00 25,0 C 62 % 1012,4 hPa 0,0 l/m 10,1 km/h (2 Bft) NO 1,00 h 0,406 mm 3,8 UV-I 659 W/m 17,3 C 24,2 C 16,6 km/h (3 Bft) 97,88 %
14.09.2016 13:00 26,0 C 59 % 1012,2 hPa 0,0 l/m 13,3 km/h (3 Bft) O-NO 1,00 h 0,457 mm 3,8 UV-I 662 W/m 17,4 C 24,8 C 20,0 km/h (4 Bft) 99,06 %
14.09.2016 14:00 26,7 C 58 % 1011,9 hPa 0,0 l/m 16,0 km/h (3 Bft) NO 1,00 h 0,508 mm 3,1 UV-I 609 W/m 17,8 C 25,3 C 23,7 km/h (4 Bft) 98,00 %
14.09.2016 15:00 26,9 C 58 % 1011,5 hPa 0,0 l/m 18,5 km/h (3 Bft) NO 1,00 h 0,483 mm 2,2 UV-I 514 W/m 17,9 C 25,3 C 27,0 km/h (4 Bft) 99,08 %
14.09.2016 16:00 26,7 C 55 % 1011,3 hPa 0,0 l/m 19,9 km/h (4 Bft) O-NO 1,00 h 0,457 mm 1,2 UV-I 382 W/m 16,9 C 24,9 C 28,2 km/h (4 Bft) 97,66 %
14.09.2016 17:00 25,9 C 55 % 1011,4 hPa 0,0 l/m 19,2 km/h (3 Bft) O-NO 1,00 h 0,381 mm 0,6 UV-I 224 W/m 16,2 C 23,9 C 27,0 km/h (4 Bft) 99,23 %
14.09.2016 18:00 24,5 C 58 % 1011,5 hPa 0,0 l/m 14,6 km/h (3 Bft) O-NO 0,30 h 0,279 mm 0,0 UV-I 62 W/m 15,6 C 22,9 C 21,5 km/h (4 Bft) 97,84 %
14.09.2016 19:00 22,5 C 65 % 1011,7 hPa 0,0 l/m 7,7 km/h (2 Bft) O-NO 0,07 h 0,127 mm 0,0 UV-I 9 W/m 15,6 C 22,1 C 12,1 km/h (2 Bft) 99,08 %
14.09.2016 20:00 21,1 C 70 % 1012,2 hPa 0,0 l/m 7,1 km/h (2 Bft) O-NO 0,00 h 0,051 mm 0,0 UV-I 0 W/m 15,3 C 20,8 C 11,2 km/h (2 Bft) 97,90 %
14.09.2016 21:00 19,9 C 74 % 1012,3 hPa 0,0 l/m 6,5 km/h (2 Bft) NO 0,00 h 0,026 mm 0,0 UV-I 0 W/m 15,0 C 19,8 C 10,2 km/h (2 Bft) 99,32 %
14.09.2016 22:00 19,3 C 75 % 1012,2 hPa 0,0 l/m 9,9 km/h (2 Bft) NO 0,00 h 0,025 mm 0,0 UV-I 0 W/m 14,8 C 18,0 C 15,1 km/h (3 Bft) 97,54 %
14.09.2016 23:00 19,0 C 75 % 1012,0 hPa 0,0 l/m 10,1 km/h (2 Bft) O-NO 0,00 h 0,051 mm 0,0 UV-I 0 W/m 14,4 C 17,5 C 15,6 km/h (3 Bft) 99,10 %
15.09.2016 00:00 18,0 C 79 % 1011,8 hPa 0,0 l/m 8,6 km/h (2 Bft) O-NO 0,00 h 0,000 mm 0,0 UV-I 0 W/m 14,3 C 17,1 C 13,9 km/h (3 Bft) 97,63 %
15.09.2016 01:00 17,5 C 81 % 1011,6 hPa 0,0 l/m 9,2 km/h (2 Bft) O-NO 0,00 h 0,025 mm 0,0 UV-I 0 W/m 14,1 C 16,3 C 14,6 km/h (3 Bft) 98,63 %
15.09.2016 02:00 17,6 C 79 % 1011,3 hPa 0,0 l/m 14,5 km/h (3 Bft) O-NO 0,00 h 0,026 mm 0,0 UV-I 0 W/m 13,9 C 14,5 C 21,0 km/h (4 Bft) 97,95 %
15.09.2016 03:00 17,4 C 79 % 1010,9 hPa 0,0 l/m 17,3 km/h (3 Bft) O-NO 0,00 h 0,051 mm 0,0 UV-I 0 W/m 13,8 C 13,5 C 25,0 km/h (4 Bft) 99,28 %
15.09.2016 04:00 17,0 C 82 % 1010,6 hPa 0,0 l/m 14,8 km/h (3 Bft) O-NO 0,00 h 0,050 mm 0,0 UV-I 0 W/m 13,9 C 13,6 C 21,2 km/h (4 Bft) 98,16 %
15.09.2016 05:00 16,6 C 84 % 1010,2 hPa 0,0 l/m 15,5 km/h (3 Bft) O-NO 0,00 h 0,026 mm 0,0 UV-I 0 W/m 13,9 C 13,0 C 22,3 km/h (4 Bft) 99,07 %
15.09.2016 06:00 16,1 C 86 % 1010,4 hPa 0,0 l/m 12,9 km/h (3 Bft) O-NO 0,03 h 0,025 mm 0,0 UV-I 9 W/m 13,8 C 13,4 C 18,7 km/h (3 Bft) 97,86 %
15.09.2016 07:00 15,9 C 87 % 1010,6 hPa 0,0 l/m 13,8 km/h (3 Bft) O-NO 0,00 h 0,026 mm 0,0 UV-I 50 W/m 13,8 C 12,7 C 20,2 km/h (4 Bft) 98,85 %
15.09.2016 08:00 17,0 C 83 % 1010,5 hPa 0,0 l/m 16,1 km/h (3 Bft) NO 0,80 h 0,050 mm 0,6 UV-I 198 W/m 14,1 C 13,3 C 23,2 km/h (4 Bft) 98,16 %
15.09.2016 09:00 18,6 C 77 % 1010,6 hPa 0,0 l/m 15,9 km/h (3 Bft) O-NO 1,00 h 0,153 mm 1,2 UV-I 362 W/m 14,5 C 15,4 C 22,5 km/h (4 Bft) 98,44 %
15.09.2016 10:00 20,7 C 70 % 1010,5 hPa 0,0 l/m 12,8 km/h (3 Bft) NO 1,00 h 0,254 mm 2,2 UV-I 496 W/m 15,0 C 18,6 C 18,8 km/h (3 Bft) 98,31 %
15.09.2016 11:00 22,5 C 65 % 1010,3 hPa 0,0 l/m 13,1 km/h (3 Bft) O-NO 1,00 h 0,355 mm 3,1 UV-I 606 W/m 15,6 C 20,7 C 19,2 km/h (3 Bft) 98,59 %
15.09.2016 12:00 24,3 C 62 % 1010,1 hPa 0,0 l/m 11,4 km/h (2 Bft) NO 1,00 h 0,432 mm 3,7 UV-I 658 W/m 16,4 C 23,1 C 17,4 km/h (3 Bft) 98,38 %
15.09.2016 13:00 25,8 C 57 % 1009,9 hPa 0,0 l/m 11,5 km/h (2 Bft) NO 1,00 h 0,483 mm 3,7 UV-I 657 W/m 16,6 C 24,8 C 18,3 km/h (3 Bft) 98,07 %
15.09.2016 14:00 26,9 C 54 % 1009,6 hPa 0,0 l/m 11,2 km/h (2 Bft) NO 1,00 h 0,482 mm 3,1 UV-I 601 W/m 16,9 C 26,2 C 17,1 km/h (3 Bft) 98,72 %
15.09.2016 15:00 27,6 C 52 % 1009,2 hPa 0,0 l/m 10,7 km/h (2 Bft) O-NO 1,00 h 0,458 mm 2,1 UV-I 502 W/m 17,0 C 26,9 C 16,4 km/h (3 Bft) 98,24 %
15.09.2016 16:00 27,6 C 52 % 1009,0 hPa 0,0 l/m 11,4 km/h (2 Bft) NO 1,00 h 0,406 mm 1,2 UV-I 360 W/m 17,0 C 26,9 C 17,4 km/h (3 Bft) 98,77 %
15.09.2016 17:00 27,2 C 53 % 1008,8 hPa 0,0 l/m 9,4 km/h (2 Bft) O-NO 0,73 h 0,330 mm 0,6 UV-I 190 W/m 16,6 C 26,7 C 14,6 km/h (3 Bft) 97,91 %
15.09.2016 18:00 24,9 C 61 % 1008,8 hPa 0,0 l/m 4,4 km/h (1 Bft) O-NO 0,00 h 0,203 mm 0,0 UV-I 36 W/m 16,8 C 24,9 C 6,6 km/h (2 Bft) 98,51 %
15.09.2016 19:00 22,5 C 70 % 1008,7 hPa 0,0 l/m 3,2 km/h (1 Bft) O-NO 0,00 h 0,051 mm 0,0 UV-I 7 W/m 16,7 C 22,5 C 5,1 km/h (1 Bft) 97,79 %
15.09.2016 20:00 21,6 C 71 % 1008,7 hPa 0,0 l/m 5,5 km/h (1 Bft) O-NO 0,00 h 0,026 mm 0,0 UV-I 0 W/m 16,2 C 21,6 C 8,0 km/h (2 Bft) 98,48 %
15.09.2016 21:00 20,6 C 75 % 1008,8 hPa 0,0 l/m 2,7 km/h (1 Bft) O-NO 0,00 h 0,025 mm 0,0 UV-I 0 W/m 16,0 C 20,6 C 4,5 km/h (1 Bft) 98,02 %
15.09.2016 22:00 18,4 C 84 % 1009,2 hPa 0,0 l/m 1,2 km/h (1 Bft) O-SO 0,00 h 0,025 mm 0,0 UV-I 0 W/m 15,8 C 18,4 C 2,5 km/h (1 Bft) 98,85 %
15.09.2016 23:00 17,7 C 88 % 1009,5 hPa 0,0 l/m 1,1 km/h (1 Bft) S-SW 0,00 h 0,000 mm 0,0 UV-I 0 W/m 15,6 C 17,7 C 2,4 km/h (1 Bft) 97,73 %
16.09.2016 00:00 17,0 C 90 % 1009,9 hPa 0,0 l/m 0,7 km/h (0 Bft) S-SW 0,00 h 0,000 mm 0,0 UV-I 0 W/m 15,3 C 17,0 C 1,6 km/h (1 Bft) 98,78 %
16.09.2016 01:00 16,4 C 92 % 1010,3 hPa 0,0 l/m 2,7 km/h (1 Bft) S 0,00 h 0,000 mm 0,0 UV-I 0 W/m 15,1 C 16,4 C 4,3 km/h (1 Bft) 98,06 %
16.09.2016 02:00 16,4 C 91 % 1010,6 hPa 0,0 l/m 3,1 km/h (1 Bft) S 0,00 h 0,000 mm 0,0 UV-I 0 W/m 15,0 C 16,4 C 5,3 km/h (1 Bft) 98,52 %
16.09.2016 03:00 16,8 C 88 % 1010,8 hPa 0,0 l/m 7,2 km/h (2 Bft) S-SW 0,00 h 0,000 mm 0,0 UV-I 0 W/m 14,8 C 16,2 C 10,6 km/h (2 Bft) 98,73 %
16.09.2016 04:00 16,6 C 87 % 1011,1 hPa 0,0 l/m 6,3 km/h (2 Bft) SW 0,00 h 0,025 mm 0,0 UV-I 0 W/m 14,5 C 16,5 C 9,0 km/h (2 Bft) 98,76 %
16.09.2016 05:00 16,4 C 88 % 1011,4 hPa 0,0 l/m 7,7 km/h (2 Bft) W-SW 0,00 h 0,026 mm 0,0 UV-I 0 W/m 14,4 C 15,6 C 11,7 km/h (2 Bft) 98,09 %
16.09.2016 06:00 16,4 C 89 % 1011,8 hPa 0,0 l/m 9,5 km/h (2 Bft) SW 0,00 h 0,025 mm 0,0 UV-I 7 W/m 14,6 C 15,0 C 14,6 km/h (3 Bft) 98,50 %
16.09.2016 07:00 17,1 C 88 % 1012,0 hPa 0,0 l/m 11,0 km/h (2 Bft) SW 0,00 h 0,026 mm 0,0 UV-I 48 W/m 15,1 C 15,1 C 17,2 km/h (3 Bft) 98,20 %
16.09.2016 08:00 17,9 C 86 % 1012,2 hPa 0,0 l/m 12,3 km/h (3 Bft) W-SW 0,03 h 0,050 mm 0,4 UV-I 119 W/m 15,5 C 15,6 C 19,2 km/h (3 Bft) 98,37 %
16.09.2016 09:00 19,2 C 81 % 1012,6 hPa 0,0 l/m 11,5 km/h (2 Bft) W-SW 0,50 h 0,102 mm 1,0 UV-I 256 W/m 15,9 C 17,3 C 18,1 km/h (3 Bft) 98,47 %
16.09.2016 10:00 20,5 C 76 % 1012,4 hPa 0,0 l/m 6,6 km/h (2 Bft) W-SW 1,00 h 0,178 mm 1,9 UV-I 402 W/m 16,2 C 20,0 C 12,2 km/h (2 Bft) 98,87 %
16.09.2016 11:00 21,0 C 75 % 1012,0 hPa 0,0 l/m 3,5 km/h (1 Bft) W-NW 0,87 h 0,254 mm 2,5 UV-I 443 W/m 16,3 C 21,0 C 7,7 km/h (2 Bft) 98,10 %
16.09.2016 12:00 21,7 C 73 % 1011,6 hPa 0,0 l/m 3,2 km/h (1 Bft) NW 0,87 h 0,279 mm 3,3 UV-I 558 W/m 16,6 C 21,7 C 6,8 km/h (2 Bft) 98,76 %
16.09.2016 13:00 22,7 C 70 % 1011,0 hPa 0,0 l/m 3,1 km/h (1 Bft) NW 0,90 h 0,330 mm 3,2 UV-I 532 W/m 16,9 C 22,7 C 6,6 km/h (2 Bft) 98,01 %
16.09.2016 14:00 22,9 C 70 % 1010,5 hPa 0,0 l/m 2,5 km/h (1 Bft) N-NW 0,47 h 0,331 mm 2,4 UV-I 406 W/m 17,0 C 22,9 C 5,8 km/h (2 Bft) 99,22 %
16.09.2016 15:00 22,6 C 71 % 1010,1 hPa 0,0 l/m 2,1 km/h (1 Bft) N 0,00 h 0,254 mm 1,2 UV-I 225 W/m 17,0 C 22,6 C 5,1 km/h (1 Bft) 97,59 %
16.09.2016 16:00 22,3 C 71 % 1009,8 hPa 0,0 l/m 1,6 km/h (1 Bft) N-NW 0,00 h 0,152 mm 0,7 UV-I 155 W/m 16,8 C 22,3 C 4,2 km/h (1 Bft) 99,22 %
16.09.2016 17:00 21,7 C 74 % 1009,5 hPa 0,0 l/m 0,4 km/h (0 Bft) N-NW 0,00 h 0,102 mm 0,0 UV-I 62 W/m 16,8 C 21,7 C 1,5 km/h (1 Bft) 96,98 %
16.09.2016 18:00 21,0 C 78 % 1009,0 hPa 0,0 l/m 0,5 km/h (0 Bft) N-NW 0,00 h 0,050 mm 0,0 UV-I 24 W/m 16,9 C 21,0 C 2,0 km/h (1 Bft) 99,37 %
16.09.2016 19:00 20,1 C 80 % 1008,9 hPa 0,0 l/m 2,0 km/h (1 Bft) O 0,00 h 0,026 mm 0,0 UV-I 0 W/m 16,6 C 20,1 C 3,1 km/h (1 Bft) 97,59 %
16.09.2016 20:00 19,5 C 84 % 1008,7 hPa 0,0 l/m 0,5 km/h (0 Bft) N 0,00 h 0,000 mm 0,0 UV-I 0 W/m 16,7 C 19,5 C 1,2 km/h (1 Bft) 99,11 %
16.09.2016 21:00 19,2 C 86 % 1008,4 hPa 0,0 l/m 0,8 km/h (0 Bft) O-SO 0,00 h 0,000 mm 0,0 UV-I 0 W/m 16,7 C 19,2 C 1,8 km/h (1 Bft) 97,74 %
16.09.2016 22:00 18,7 C 88 % 1008,2 hPa 0,0 l/m 2,5 km/h (1 Bft) O-SO 0,00 h 0,000 mm 0,0 UV-I 0 W/m 16,6 C 18,7 C 4,5 km/h (1 Bft) 98,87 %
16.09.2016 23:00 18,2 C 90 % 1007,7 hPa 0,0 l/m 2,0 km/h (1 Bft) S 0,00 h 0,000 mm 0,0 UV-I 0 W/m 16,6 C 18,2 C 3,5 km/h (1 Bft) 97,86 %
17.09.2016 00:00 17,8 C 92 % 1007,6 hPa 0,0 l/m 2,5 km/h (1 Bft) S 0,00 h 0,000 mm 0,0 UV-I 0 W/m 16,4 C 17,8 C 4,4 km/h (1 Bft) 99,28 %
17.09.2016 01:00 17,7 C 93 % 1007,3 hPa 0,0 l/m 6,3 km/h (2 Bft) S 0,00 h 0,000 mm 0,0 UV-I 0 W/m 16,5 C 17,1 C 9,9 km/h (2 Bft) 98,08 %
17.09.2016 02:00 17,4 C 90 % 1007,4 hPa 0,0 l/m 8,3 km/h (2 Bft) SW 0,00 h 0,000 mm 0,0 UV-I 0 W/m 15,6 C 16,4 C 13,7 km/h (3 Bft) 99,23 %
17.09.2016 03:00 16,7 C 91 % 1007,5 hPa 0,2 l/m 14,6 km/h (3 Bft) SW 0,00 h 0,025 mm 0,0 UV-I 0 W/m 15,3 C 13,4 C 22,5 km/h (4 Bft) 97,87 %
17.09.2016 04:00 16,3 C 91 % 1007,2 hPa 0,0 l/m 16,3 km/h (3 Bft) SW 0,00 h 0,026 mm 0,0 UV-I 0 W/m 14,7 C 12,3 C 25,8 km/h (4 Bft) 98,85 %
17.09.2016 05:00 15,6 C 91 % 1007,3 hPa 0,8 l/m 19,0 km/h (3 Bft) SW 0,00 h 0,025 mm 0,0 UV-I 0 W/m 14,1 C 10,8 C 29,6 km/h (5 Bft) 98,01 %
17.09.2016 06:00 14,6 C 95 % 1007,5 hPa 5,8 l/m 16,2 km/h (3 Bft) SW 0,00 h 0,026 mm 0,0 UV-I 0 W/m 13,7 C 10,3 C 24,8 km/h (4 Bft) 99,16 %
17.09.2016 07:00 14,2 C 95 % 1008,0 hPa 3,4 l/m 17,4 km/h (3 Bft) SW 0,00 h 0,000 mm 0,0 UV-I 8 W/m 13,4 C 9,4 C 28,0 km/h (4 Bft) 98,09 %
17.09.2016 08:00 13,8 C 95 % 1008,1 hPa 1,8 l/m 18,8 km/h (3 Bft) W-SW 0,00 h 0,025 mm 0,0 UV-I 25 W/m 13,0 C 8,6 C 29,2 km/h (5 Bft) 98,78 %
17.09.2016 09:00 13,6 C 93 % 1008,1 hPa 0,4 l/m 20,6 km/h (4 Bft) SW 0,00 h 0,025 mm 0,5 UV-I 102 W/m 12,5 C 7,8 C 33,4 km/h (5 Bft) 97,65 %
17.09.2016 10:00 13,7 C 91 % 1008,2 hPa 0,0 l/m 23,0 km/h (4 Bft) SW 0,00 h 0,077 mm 0,6 UV-I 88 W/m 12,3 C 7,3 C 36,7 km/h (5 Bft) 99,58 %
17.09.2016 11:00 13,6 C 91 % 1008,5 hPa 0,4 l/m 22,6 km/h (4 Bft) SW 0,00 h 0,076 mm 0,6 UV-I 87 W/m 12,2 C 7,4 C 35,5 km/h (5 Bft) 97,19 %
17.09.2016 12:00 13,2 C 94 % 1008,8 hPa 1,6 l/m 22,2 km/h (4 Bft) S-SW 0,00 h 0,076 mm 0,5 UV-I 73 W/m 12,2 C 6,8 C 36,1 km/h (5 Bft) 99,30 %
17.09.2016 13:00 13,0 C 94 % 1009,0 hPa 1,4 l/m 23,8 km/h (4 Bft) SW 0,00 h 0,051 mm 0,7 UV-I 89 W/m 12,1 C 6,2 C 37,6 km/h (5 Bft) 97,18 %
17.09.2016 14:00 13,3 C 92 % 1009,3 hPa 0,8 l/m 22,0 km/h (4 Bft) SW 0,00 h 0,051 mm 0,7 UV-I 96 W/m 12,1 C 7,1 C 34,8 km/h (5 Bft) 99,14 %
17.09.2016 15:00 13,7 C 89 % 1009,6 hPa 0,2 l/m 18,4 km/h (3 Bft) SW 0,00 h 0,076 mm 0,5 UV-I 64 W/m 12,0 C 8,6 C 30,4 km/h (5 Bft) 98,02 %
17.09.2016 16:00 14,1 C 85 % 1009,9 hPa 0,4 l/m 22,5 km/h (4 Bft) SW 0,00 h 0,051 mm 0,0 UV-I 42 W/m 11,6 C 8,0 C 36,9 km/h (5 Bft) 98,64 %
17.09.2016 17:00 13,6 C 87 % 1010,2 hPa 0,2 l/m 19,5 km/h (3 Bft) S-SW 0,00 h 0,050 mm 0,0 UV-I 21 W/m 11,4 C 8,2 C 31,1 km/h (5 Bft) 97,58 %
17.09.2016 18:00 13,0 C 89 % 1010,2 hPa 0,8 l/m 17,6 km/h (3 Bft) S-SW 0,00 h 0,051 mm 0,0 UV-I 9 W/m 11,3 C 7,9 C 28,1 km/h (4 Bft) 99,07 %
17.09.2016 19:00 13,0 C 89 % 1010,1 hPa 0,4 l/m 15,8 km/h (3 Bft) SW 0,00 h 0,026 mm 0,0 UV-I 0 W/m 11,2 C 8,5 C 25,5 km/h (4 Bft) 97,75 %
17.09.2016 20:00 13,1 C 89 % 1010,3 hPa 0,0 l/m 13,0 km/h (3 Bft) S-SW 0,00 h 0,025 mm 0,0 UV-I 0 W/m 11,3 C 9,6 C 21,1 km/h (4 Bft) 99,01 %
17.09.2016 21:00 13,2 C 88 % 1010,5 hPa 0,2 l/m 11,3 km/h (2 Bft) SW 0,00 h 0,025 mm 0,0 UV-I 0 W/m 11,3 C 10,6 C 18,4 km/h (3 Bft) 97,23 %
17.09.2016 22:00 13,0 C 90 % 1010,5 hPa 0,0 l/m 12,7 km/h (3 Bft) SW 0,00 h 0,026 mm 0,0 UV-I 0 W/m 11,4 C 9,7 C 20,1 km/h (4 Bft) 98,44 %
17.09.2016 23:00 13,2 C 90 % 1010,7 hPa 0,0 l/m 10,9 km/h (2 Bft) SW 0,00 h 0,025 mm 0,0 UV-I 0 W/m 11,6 C 10,8 C 17,4 km/h (3 Bft) 98,66 %
18.09.2016 00:00 13,1 C 91 % 1010,7 hPa 0,2 l/m 8,5 km/h (2 Bft) W-SW 0,00 h 0,000 mm 0,0 UV-I 0 W/m 11,7 C 11,9 C 13,5 km/h (3 Bft) 98,78 %
18.09.2016 01:00 13,1 C 91 % 1010,5 hPa 0,2 l/m 10,7 km/h (2 Bft) W-SW 0,00 h 0,000 mm 0,0 UV-I 0 W/m 11,7 C 10,7 C 16,2 km/h (3 Bft) 97,87 %
18.09.2016 02:00 13,0 C 92 % 1010,2 hPa 0,0 l/m 9,8 km/h (2 Bft) SW 0,00 h 0,025 mm 0,0 UV-I 0 W/m 11,8 C 11,2 C 15,9 km/h (3 Bft) 98,45 %
18.09.2016 03:00 13,2 C 92 % 1010,2 hPa 0,0 l/m 4,6 km/h (1 Bft) SW 0,00 h 0,000 mm 0,0 UV-I 0 W/m 11,9 C 13,1 C 7,2 km/h (2 Bft) 98,87 %
18.09.2016 04:00 13,3 C 92 % 1010,2 hPa 0,0 l/m 3,0 km/h (1 Bft) W 0,00 h 0,000 mm 0,0 UV-I 0 W/m 12,0 C 13,3 C 5,2 km/h (1 Bft) 98,15 %
18.09.2016 05:00 13,3 C 92 % 1010,2 hPa 0,2 l/m 1,8 km/h (1 Bft) S 0,00 h 0,000 mm 0,0 UV-I 0 W/m 12,1 C 13,3 C 3,0 km/h (1 Bft) 98,10 %
18.09.2016 06:00 12,8 C 95 % 1010,1 hPa 0,6 l/m 3,9 km/h (1 Bft) SO 0,00 h 0,000 mm 0,0 UV-I 0 W/m 12,0 C 12,8 C 6,4 km/h (2 Bft) 98,21 %
18.09.2016 07:00 12,7 C 96 % 1010,0 hPa 0,4 l/m 1,8 km/h (1 Bft) S-SO 0,00 h 0,000 mm 0,0 UV-I 16 W/m 12,1 C 12,7 C 3,8 km/h (1 Bft) 98,92 %
18.09.2016 08:00 13,2 C 96 % 1010,0 hPa 0,0 l/m 1,4 km/h (1 Bft) SO 0,00 h 0,000 mm 0,0 UV-I 64 W/m 12,5 C 13,2 C 3,1 km/h (1 Bft) 98,66 %
18.09.2016 09:00 14,3 C 93 % 1010,0 hPa 0,0 l/m 4,0 km/h (1 Bft) SW 0,00 h 0,026 mm 0,6 UV-I 123 W/m 13,1 C 14,3 C 6,8 km/h (2 Bft) 97,85 %
18.09.2016 10:00 15,4 C 87 % 1010,1 hPa 0,0 l/m 5,6 km/h (1 Bft) S 0,00 h 0,076 mm 0,8 UV-I 162 W/m 13,3 C 15,2 C 9,9 km/h (2 Bft) 98,62 %
18.09.2016 11:00 16,4 C 83 % 1010,0 hPa 0,0 l/m 7,3 km/h (2 Bft) W-SW 0,00 h 0,102 mm 1,5 UV-I 234 W/m 13,4 C 15,8 C 11,9 km/h (2 Bft) 98,28 %
18.09.2016 12:00 17,1 C 79 % 1009,9 hPa 0,0 l/m 10,7 km/h (2 Bft) W-SW 0,10 h 0,152 mm 1,9 UV-I 277 W/m 13,5 C 15,2 C 17,5 km/h (3 Bft) 98,35 %
18.09.2016 13:00 17,8 C 76 % 1009,9 hPa 0,0 l/m 13,7 km/h (3 Bft) W-SW 0,30 h 0,178 mm 2,6 UV-I 379 W/m 13,4 C 15,0 C 21,2 km/h (4 Bft) 98,56 %
18.09.2016 14:00 17,6 C 76 % 1009,6 hPa 0,0 l/m 7,3 km/h (2 Bft) W-SW 0,10 h 0,254 mm 1,7 UV-I 275 W/m 13,4 C 17,0 C 13,3 km/h (3 Bft) 98,81 %
18.09.2016 15:00 18,0 C 78 % 1009,3 hPa 0,0 l/m 2,9 km/h (1 Bft) W-NW 0,30 h 0,178 mm 1,4 UV-I 260 W/m 14,1 C 18,0 C 6,2 km/h (2 Bft) 97,76 %
18.09.2016 16:00 17,7 C 79 % 1009,2 hPa 0,0 l/m 2,3 km/h (1 Bft) W 0,00 h 0,152 mm 0,7 UV-I 147 W/m 14,0 C 17,7 C 5,2 km/h (1 Bft) 99,02 %
18.09.2016 17:00 17,4 C 81 % 1009,2 hPa 0,0 l/m 3,7 km/h (1 Bft) W-SW 0,27 h 0,076 mm 0,5 UV-I 124 W/m 14,0 C 17,1 C 7,1 km/h (2 Bft) 98,16 %
18.09.2016 18:00 16,5 C 83 % 1009,4 hPa 0,0 l/m 4,3 km/h (1 Bft) SW 0,00 h 0,076 mm 0,0 UV-I 33 W/m 13,5 C 16,5 C 6,9 km/h (2 Bft) 98,87 %
18.09.2016 19:00 15,4 C 87 % 1009,7 hPa 0,0 l/m 5,0 km/h (1 Bft) SW 0,00 h 0,026 mm 0,0 UV-I 4 W/m 13,2 C 15,3 C 8,0 km/h (2 Bft) 98,22 %
18.09.2016 20:00 14,9 C 89 % 1010,0 hPa 0,0 l/m 5,8 km/h (2 Bft) SW 0,00 h 0,000 mm 0,0 UV-I 0 W/m 13,0 C 14,6 C 9,4 km/h (2 Bft) 99,09 %
18.09.2016 21:00 14,7 C 89 % 1010,1 hPa 0,0 l/m 6,7 km/h (2 Bft) W-SW 0,00 h 0,000 mm 0,0 UV-I 0 W/m 12,8 C 14,3 C 11,1 km/h (2 Bft) 98,03 %
18.09.2016 22:00 14,2 C 91 % 1010,1 hPa 0,0 l/m 5,3 km/h (1 Bft) SW 0,00 h 0,000 mm 0,0 UV-I 0 W/m 12,8 C 14,2 C 8,3 km/h (2 Bft) 98,75 %
18.09.2016 23:00 14,0 C 91 % 1010,1 hPa 0,0 l/m 6,8 km/h (2 Bft) S-SW 0,00 h 0,000 mm 0,0 UV-I 0 W/m 12,6 C 13,5 C 11,4 km/h (2 Bft) 97,88 %
Min-Datum _ 18.09.16 12.09.16 17.09.16 - 12.09.16 - - - - - 17.09.16 17.09.16 12.09.16 17.09.16
_ Min-Zeit 06:44 15:48 04:46 - 00:00 - - - - - 19:06 13:30 00:00 04:10
Minimum _ 12,7 C 47 % 1007,0 hPa - 0,0 km/h (0 Bft) - - - - - 11,1 C 4,7 C 0,0 km/h (0 Bft) 91,30 %
Max-Datum _ 12.09.16 12.09.16 12.09.16 17.09.16 17.09.16 - 12.09.16 13.09.16 12.09.16 18.09.16 12.09.16 12.09.16 17.09.16 12.09.16
_ Max-Zeit 16:32 07:16 09:20 06:38 10:40 - 06:48 14:00 12:56 15:10 13:10 16:34 13:30 00:00
Maximum _ 28,6 C 98 % 1017,5 hPa 5,8 l/m 30,9 km/h
SW (5 Bft)
- 0,03 h 0,508 mm 4,1 UV-I 784 W/m 19,0 C 28,6 C 53,1 km/h
SW (7 Bft)
100,00 %
Durchschnitt _ 18,8 C 81 % 1011,7 hPa #20,4 l/m 7,7 km/h (2 Bft) O-NO #43:52 h #19,482 mm 1,9 UV-I 268 W/m 15,1 C 17,6 C 12,2 km/h (2 Bft) 98,49 %